sensor_id;sensor_type;location;lat;lon;timestamp;P1;durP1;ratioP1;P2;durP2;ratioP2
13425;SDS011;6785;57.918;12.530;2023-01-08T00:01:04;6.53;;;4.07;;
13425;SDS011;6785;57.918;12.530;2023-01-08T00:03:31;7.87;;;3.97;;
13425;SDS011;6785;57.918;12.530;2023-01-08T00:06:01;8.67;;;4.17;;
13425;SDS011;6785;57.918;12.530;2023-01-08T00:08:28;7.37;;;4.10;;
13425;SDS011;6785;57.918;12.530;2023-01-08T00:10:55;7.77;;;4.23;;
13425;SDS011;6785;57.918;12.530;2023-01-08T00:13:22;7.17;;;4.10;;
13425;SDS011;6785;57.918;12.530;2023-01-08T00:15:49;6.23;;;4.10;;
13425;SDS011;6785;57.918;12.530;2023-01-08T00:18:17;6.87;;;4.53;;
13425;SDS011;6785;57.918;12.530;2023-01-08T00:20:44;6.67;;;3.67;;
13425;SDS011;6785;57.918;12.530;2023-01-08T00:23:11;5.80;;;4.23;;
13425;SDS011;6785;57.918;12.530;2023-01-08T00:25:38;7.53;;;4.43;;
13425;SDS011;6785;57.918;12.530;2023-01-08T00:28:05;5.33;;;4.07;;
13425;SDS011;6785;57.918;12.530;2023-01-08T00:30:32;6.80;;;4.53;;
13425;SDS011;6785;57.918;12.530;2023-01-08T00:32:59;6.90;;;4.07;;
13425;SDS011;6785;57.918;12.530;2023-01-08T00:35:27;8.93;;;4.07;;
13425;SDS011;6785;57.918;12.530;2023-01-08T00:37:53;7.40;;;4.57;;
13425;SDS011;6785;57.918;12.530;2023-01-08T00:40:20;13.17;;;4.93;;
13425;SDS011;6785;57.918;12.530;2023-01-08T00:42:47;6.83;;;4.53;;
13425;SDS011;6785;57.918;12.530;2023-01-08T00:45:14;7.30;;;4.87;;
13425;SDS011;6785;57.918;12.530;2023-01-08T00:47:41;7.80;;;5.60;;
13425;SDS011;6785;57.918;12.530;2023-01-08T00:50:08;7.70;;;5.30;;
13425;SDS011;6785;57.918;12.530;2023-01-08T00:52:36;8.47;;;5.97;;
13425;SDS011;6785;57.918;12.530;2023-01-08T00:55:03;7.67;;;5.33;;
13425;SDS011;6785;57.918;12.530;2023-01-08T00:57:32;10.57;;;6.43;;
13425;SDS011;6785;57.918;12.530;2023-01-08T00:59:59;8.37;;;6.03;;
13425;SDS011;6785;57.918;12.530;2023-01-08T01:02:26;8.70;;;5.90;;
13425;SDS011;6785;57.918;12.530;2023-01-08T01:04:53;8.13;;;5.43;;
13425;SDS011;6785;57.918;12.530;2023-01-08T01:07:19;9.67;;;5.70;;
13425;SDS011;6785;57.918;12.530;2023-01-08T01:09:47;8.63;;;6.23;;
13425;SDS011;6785;57.918;12.530;2023-01-08T01:12:14;8.67;;;6.00;;
13425;SDS011;6785;57.918;12.530;2023-01-08T01:14:41;10.13;;;6.03;;
13425;SDS011;6785;57.918;12.530;2023-01-08T01:17:09;10.00;;;6.97;;
13425;SDS011;6785;57.918;12.530;2023-01-08T01:19:35;10.37;;;6.47;;
13425;SDS011;6785;57.918;12.530;2023-01-08T01:22:02;10.23;;;6.90;;
13425;SDS011;6785;57.918;12.530;2023-01-08T01:24:29;8.80;;;6.67;;
13425;SDS011;6785;57.918;12.530;2023-01-08T01:26:57;8.53;;;6.50;;
13425;SDS011;6785;57.918;12.530;2023-01-08T01:29:24;11.63;;;7.40;;
13425;SDS011;6785;57.918;12.530;2023-01-08T01:31:51;11.90;;;7.43;;
13425;SDS011;6785;57.918;12.530;2023-01-08T01:34:18;12.47;;;7.83;;
13425;SDS011;6785;57.918;12.530;2023-01-08T01:36:45;10.83;;;7.63;;
13425;SDS011;6785;57.918;12.530;2023-01-08T01:39:11;11.70;;;7.70;;
13425;SDS011;6785;57.918;12.530;2023-01-08T01:41:39;11.63;;;7.97;;
13425;SDS011;6785;57.918;12.530;2023-01-08T01:47:02;13.80;;;8.97;;
13425;SDS011;6785;57.918;12.530;2023-01-08T01:49:34;13.90;;;8.67;;
13425;SDS011;6785;57.918;12.530;2023-01-08T01:52:02;12.50;;;8.03;;
13425;SDS011;6785;57.918;12.530;2023-01-08T01:54:32;13.50;;;8.93;;
13425;SDS011;6785;57.918;12.530;2023-01-08T01:57:00;12.53;;;8.20;;
13425;SDS011;6785;57.918;12.530;2023-01-08T01:59:28;12.20;;;8.33;;
13425;SDS011;6785;57.918;12.530;2023-01-08T02:01:56;10.53;;;8.40;;
13425;SDS011;6785;57.918;12.530;2023-01-08T02:04:23;14.03;;;8.67;;
13425;SDS011;6785;57.918;12.530;2023-01-08T02:06:53;13.40;;;8.20;;
13425;SDS011;6785;57.918;12.530;2023-01-08T02:09:27;13.73;;;8.73;;
13425;SDS011;6785;57.918;12.530;2023-01-08T02:12:07;13.53;;;8.50;;
13425;SDS011;6785;57.918;12.530;2023-01-08T02:14:52;12.03;;;8.23;;
13425;SDS011;6785;57.918;12.530;2023-01-08T02:17:33;14.10;;;9.10;;
13425;SDS011;6785;57.918;12.530;2023-01-08T02:20:13;12.87;;;8.17;;
13425;SDS011;6785;57.918;12.530;2023-01-08T02:22:48;11.13;;;8.23;;
13425;SDS011;6785;57.918;12.530;2023-01-08T02:25:30;12.97;;;8.43;;
13425;SDS011;6785;57.918;12.530;2023-01-08T02:28:07;12.80;;;8.53;;
13425;SDS011;6785;57.918;12.530;2023-01-08T02:30:36;14.60;;;9.03;;
13425;SDS011;6785;57.918;12.530;2023-01-08T02:33:03;11.20;;;8.63;;
13425;SDS011;6785;57.918;12.530;2023-01-08T02:35:33;12.80;;;8.23;;
13425;SDS011;6785;57.918;12.530;2023-01-08T02:38:03;12.83;;;7.73;;
13425;SDS011;6785;57.918;12.530;2023-01-08T02:40:32;15.87;;;8.87;;
13425;SDS011;6785;57.918;12.530;2023-01-08T02:43:04;14.63;;;8.87;;
13425;SDS011;6785;57.918;12.530;2023-01-08T02:45:37;10.33;;;8.43;;
13425;SDS011;6785;57.918;12.530;2023-01-08T02:48:11;10.30;;;8.27;;
13425;SDS011;6785;57.918;12.530;2023-01-08T02:50:40;11.10;;;8.10;;
13425;SDS011;6785;57.918;12.530;2023-01-08T02:53:12;13.60;;;8.07;;
13425;SDS011;6785;57.918;12.530;2023-01-08T02:55:41;14.87;;;9.87;;
13425;SDS011;6785;57.918;12.530;2023-01-08T02:58:12;12.73;;;9.17;;
13425;SDS011;6785;57.918;12.530;2023-01-08T03:00:40;9.30;;;7.47;;
13425;SDS011;6785;57.918;12.530;2023-01-08T03:03:09;12.17;;;8.70;;
13425;SDS011;6785;57.918;12.530;2023-01-08T03:05:40;11.33;;;7.80;;
13425;SDS011;6785;57.918;12.530;2023-01-08T03:08:11;10.67;;;7.50;;
13425;SDS011;6785;57.918;12.530;2023-01-08T03:10:38;10.70;;;7.97;;
13425;SDS011;6785;57.918;12.530;2023-01-08T03:13:08;10.07;;;7.83;;
13425;SDS011;6785;57.918;12.530;2023-01-08T03:15:41;12.20;;;8.80;;
13425;SDS011;6785;57.918;12.530;2023-01-08T03:18:14;11.37;;;8.40;;
13425;SDS011;6785;57.918;12.530;2023-01-08T03:20:45;11.53;;;8.03;;
13425;SDS011;6785;57.918;12.530;2023-01-08T03:23:14;11.90;;;7.57;;
13425;SDS011;6785;57.918;12.530;2023-01-08T03:25:43;11.83;;;8.37;;
13425;SDS011;6785;57.918;12.530;2023-01-08T03:28:14;10.53;;;8.07;;
13425;SDS011;6785;57.918;12.530;2023-01-08T03:30:46;10.23;;;7.60;;
13425;SDS011;6785;57.918;12.530;2023-01-08T03:33:14;10.90;;;8.20;;
13425;SDS011;6785;57.918;12.530;2023-01-08T03:35:45;12.47;;;7.70;;
13425;SDS011;6785;57.918;12.530;2023-01-08T03:38:16;10.07;;;7.60;;
13425;SDS011;6785;57.918;12.530;2023-01-08T03:40:46;10.47;;;7.60;;
13425;SDS011;6785;57.918;12.530;2023-01-08T03:43:18;12.07;;;8.60;;
13425;SDS011;6785;57.918;12.530;2023-01-08T03:45:48;9.97;;;8.03;;
13425;SDS011;6785;57.918;12.530;2023-01-08T03:48:16;8.97;;;7.10;;
13425;SDS011;6785;57.918;12.530;2023-01-08T03:50:45;8.27;;;7.13;;
13425;SDS011;6785;57.918;12.530;2023-01-08T03:53:12;8.40;;;7.03;;
13425;SDS011;6785;57.918;12.530;2023-01-08T03:55:39;10.07;;;7.50;;
13425;SDS011;6785;57.918;12.530;2023-01-08T03:58:06;10.00;;;7.50;;
13425;SDS011;6785;57.918;12.530;2023-01-08T04:00:34;8.63;;;7.27;;
13425;SDS011;6785;57.918;12.530;2023-01-08T04:03:01;8.80;;;7.03;;
13425;SDS011;6785;57.918;12.530;2023-01-08T04:05:27;9.67;;;6.80;;
13425;SDS011;6785;57.918;12.530;2023-01-08T04:07:54;7.43;;;6.50;;
13425;SDS011;6785;57.918;12.530;2023-01-08T04:10:21;8.57;;;6.80;;
13425;SDS011;6785;57.918;12.530;2023-01-08T04:12:48;8.50;;;6.80;;
13425;SDS011;6785;57.918;12.530;2023-01-08T04:15:15;7.93;;;6.70;;
13425;SDS011;6785;57.918;12.530;2023-01-08T04:17:43;9.73;;;6.50;;
13425;SDS011;6785;57.918;12.530;2023-01-08T04:20:10;10.20;;;6.87;;
13425;SDS011;6785;57.918;12.530;2023-01-08T04:22:37;8.43;;;6.73;;
13425;SDS011;6785;57.918;12.530;2023-01-08T04:25:04;6.67;;;5.90;;
13425;SDS011;6785;57.918;12.530;2023-01-08T04:27:31;7.43;;;6.17;;
13425;SDS011;6785;57.918;12.530;2023-01-08T04:29:58;8.47;;;6.77;;
13425;SDS011;6785;57.918;12.530;2023-01-08T04:32:24;8.80;;;6.33;;
13425;SDS011;6785;57.918;12.530;2023-01-08T04:34:52;7.13;;;6.23;;
13425;SDS011;6785;57.918;12.530;2023-01-08T04:37:19;6.87;;;5.90;;
13425;SDS011;6785;57.918;12.530;2023-01-08T04:39:46;8.03;;;6.30;;
13425;SDS011;6785;57.918;12.530;2023-01-08T04:42:13;5.87;;;5.27;;
13425;SDS011;6785;57.918;12.530;2023-01-08T04:44:39;8.30;;;6.37;;
13425;SDS011;6785;57.918;12.530;2023-01-08T04:47:06;6.80;;;5.80;;
13425;SDS011;6785;57.918;12.530;2023-01-08T04:49:33;6.40;;;5.80;;
13425;SDS011;6785;57.918;12.530;2023-01-08T04:52:01;7.53;;;6.00;;
13425;SDS011;6785;57.918;12.530;2023-01-08T04:54:27;6.90;;;5.40;;
13425;SDS011;6785;57.918;12.530;2023-01-08T04:56:54;7.43;;;6.10;;
13425;SDS011;6785;57.918;12.530;2023-01-08T04:59:21;7.27;;;6.23;;
13425;SDS011;6785;57.918;12.530;2023-01-08T05:01:48;7.40;;;6.03;;
13425;SDS011;6785;57.918;12.530;2023-01-08T05:04:14;6.20;;;5.60;;
13425;SDS011;6785;57.918;12.530;2023-01-08T05:06:41;6.00;;;5.40;;
13425;SDS011;6785;57.918;12.530;2023-01-08T05:09:09;7.23;;;5.50;;
13425;SDS011;6785;57.918;12.530;2023-01-08T05:11:36;8.07;;;5.47;;
13425;SDS011;6785;57.918;12.530;2023-01-08T05:14:03;7.17;;;6.07;;
13425;SDS011;6785;57.918;12.530;2023-01-08T05:16:30;7.80;;;5.80;;
13425;SDS011;6785;57.918;12.530;2023-01-08T05:18:57;7.13;;;6.43;;
13425;SDS011;6785;57.918;12.530;2023-01-08T05:21:23;7.37;;;6.53;;
13425;SDS011;6785;57.918;12.530;2023-01-08T05:23:50;9.43;;;6.67;;
13425;SDS011;6785;57.918;12.530;2023-01-08T05:26:18;7.67;;;6.50;;
13425;SDS011;6785;57.918;12.530;2023-01-08T05:28:45;8.00;;;6.57;;
13425;SDS011;6785;57.918;12.530;2023-01-08T05:31:12;7.40;;;6.20;;
13425;SDS011;6785;57.918;12.530;2023-01-08T05:33:39;8.20;;;6.53;;
13425;SDS011;6785;57.918;12.530;2023-01-08T05:36:06;7.13;;;6.43;;
13425;SDS011;6785;57.918;12.530;2023-01-08T05:38:35;7.63;;;6.50;;
13425;SDS011;6785;57.918;12.530;2023-01-08T05:41:02;9.00;;;7.33;;
13425;SDS011;6785;57.918;12.530;2023-01-08T05:43:31;7.27;;;6.30;;
13425;SDS011;6785;57.918;12.530;2023-01-08T05:45:58;8.33;;;6.40;;
13425;SDS011;6785;57.918;12.530;2023-01-08T05:48:25;8.13;;;6.50;;
13425;SDS011;6785;57.918;12.530;2023-01-08T05:50:52;8.10;;;6.43;;
13425;SDS011;6785;57.918;12.530;2023-01-08T05:53:18;8.60;;;7.13;;
13425;SDS011;6785;57.918;12.530;2023-01-08T05:55:45;7.23;;;6.50;;
13425;SDS011;6785;57.918;12.530;2023-01-08T05:58:12;8.23;;;7.27;;
13425;SDS011;6785;57.918;12.530;2023-01-08T06:00:40;9.10;;;8.00;;
13425;SDS011;6785;57.918;12.530;2023-01-08T06:03:06;9.70;;;7.13;;
13425;SDS011;6785;57.918;12.530;2023-01-08T06:05:33;8.10;;;6.50;;
13425;SDS011;6785;57.918;12.530;2023-01-08T06:08:00;9.10;;;7.23;;
13425;SDS011;6785;57.918;12.530;2023-01-08T06:10:27;9.07;;;7.27;;
13425;SDS011;6785;57.918;12.530;2023-01-08T06:12:54;7.93;;;7.00;;
13425;SDS011;6785;57.918;12.530;2023-01-08T06:15:21;7.33;;;6.10;;
13425;SDS011;6785;57.918;12.530;2023-01-08T06:17:49;7.77;;;6.93;;
13425;SDS011;6785;57.918;12.530;2023-01-08T06:20:15;8.30;;;6.57;;
13425;SDS011;6785;57.918;12.530;2023-01-08T06:22:42;8.23;;;6.40;;
13425;SDS011;6785;57.918;12.530;2023-01-08T06:25:09;8.13;;;6.67;;
13425;SDS011;6785;57.918;12.530;2023-01-08T06:27:36;8.00;;;6.77;;
13425;SDS011;6785;57.918;12.530;2023-01-08T06:30:03;7.77;;;6.83;;
13425;SDS011;6785;57.918;12.530;2023-01-08T06:32:30;8.57;;;6.60;;
13425;SDS011;6785;57.918;12.530;2023-01-08T06:34:58;7.77;;;6.37;;
13425;SDS011;6785;57.918;12.530;2023-01-08T06:37:25;7.90;;;6.83;;
13425;SDS011;6785;57.918;12.530;2023-01-08T06:39:52;7.03;;;6.20;;
13425;SDS011;6785;57.918;12.530;2023-01-08T06:42:18;8.73;;;6.97;;
13425;SDS011;6785;57.918;12.530;2023-01-08T06:44:45;8.13;;;6.50;;
13425;SDS011;6785;57.918;12.530;2023-01-08T06:47:12;7.90;;;6.63;;
13425;SDS011;6785;57.918;12.530;2023-01-08T06:49:38;9.07;;;6.40;;
13425;SDS011;6785;57.918;12.530;2023-01-08T06:52:06;8.83;;;6.67;;
13425;SDS011;6785;57.918;12.530;2023-01-08T06:54:33;6.80;;;6.03;;
13425;SDS011;6785;57.918;12.530;2023-01-08T06:57:00;8.80;;;6.40;;
13425;SDS011;6785;57.918;12.530;2023-01-08T06:59:26;6.70;;;5.73;;
13425;SDS011;6785;57.918;12.530;2023-01-08T07:01:53;6.47;;;5.63;;
13425;SDS011;6785;57.918;12.530;2023-01-08T07:04:20;10.00;;;6.33;;
13425;SDS011;6785;57.918;12.530;2023-01-08T07:06:47;6.53;;;5.90;;
13425;SDS011;6785;57.918;12.530;2023-01-08T07:09:15;8.97;;;5.43;;
13425;SDS011;6785;57.918;12.530;2023-01-08T07:11:42;5.93;;;5.10;;
13425;SDS011;6785;57.918;12.530;2023-01-08T07:14:08;5.83;;;5.10;;
13425;SDS011;6785;57.918;12.530;2023-01-08T07:16:35;5.13;;;4.53;;
13425;SDS011;6785;57.918;12.530;2023-01-08T07:19:02;5.17;;;4.07;;
13425;SDS011;6785;57.918;12.530;2023-01-08T07:21:29;5.27;;;4.33;;
13425;SDS011;6785;57.918;12.530;2023-01-08T07:23:55;4.73;;;4.23;;
13425;SDS011;6785;57.918;12.530;2023-01-08T07:26:24;4.37;;;3.97;;
13425;SDS011;6785;57.918;12.530;2023-01-08T07:28:51;3.93;;;3.37;;
13425;SDS011;6785;57.918;12.530;2023-01-08T07:31:18;4.87;;;3.93;;
13425;SDS011;6785;57.918;12.530;2023-01-08T07:33:45;5.13;;;3.83;;
13425;SDS011;6785;57.918;12.530;2023-01-08T07:36:12;3.97;;;3.53;;
13425;SDS011;6785;57.918;12.530;2023-01-08T07:38:39;3.77;;;3.27;;
13425;SDS011;6785;57.918;12.530;2023-01-08T07:41:06;3.47;;;3.00;;
13425;SDS011;6785;57.918;12.530;2023-01-08T07:43:35;5.03;;;3.13;;
13425;SDS011;6785;57.918;12.530;2023-01-08T07:46:01;4.80;;;3.27;;
13425;SDS011;6785;57.918;12.530;2023-01-08T07:48:29;4.43;;;3.30;;
13425;SDS011;6785;57.918;12.530;2023-01-08T07:50:59;3.33;;;3.03;;
13425;SDS011;6785;57.918;12.530;2023-01-08T07:53:26;3.70;;;3.17;;
13425;SDS011;6785;57.918;12.530;2023-01-08T07:55:57;3.10;;;2.80;;
13425;SDS011;6785;57.918;12.530;2023-01-08T07:58:25;4.80;;;4.40;;
13425;SDS011;6785;57.918;12.530;2023-01-08T08:00:53;3.53;;;3.23;;
13425;SDS011;6785;57.918;12.530;2023-01-08T08:03:20;3.67;;;3.37;;
13425;SDS011;6785;57.918;12.530;2023-01-08T08:05:46;5.57;;;4.53;;
13425;SDS011;6785;57.918;12.530;2023-01-08T08:08:13;4.67;;;3.00;;
13425;SDS011;6785;57.918;12.530;2023-01-08T08:10:40;2.83;;;2.50;;
13425;SDS011;6785;57.918;12.530;2023-01-08T08:13:08;4.27;;;3.20;;
13425;SDS011;6785;57.918;12.530;2023-01-08T08:15:35;2.83;;;2.53;;
13425;SDS011;6785;57.918;12.530;2023-01-08T08:18:04;3.20;;;2.90;;
13425;SDS011;6785;57.918;12.530;2023-01-08T08:20:32;3.47;;;3.17;;
13425;SDS011;6785;57.918;12.530;2023-01-08T08:22:59;3.73;;;2.97;;
13425;SDS011;6785;57.918;12.530;2023-01-08T08:25:26;5.33;;;3.33;;
13425;SDS011;6785;57.918;12.530;2023-01-08T08:27:55;3.57;;;3.07;;
13425;SDS011;6785;57.918;12.530;2023-01-08T08:30:23;5.97;;;4.63;;
13425;SDS011;6785;57.918;12.530;2023-01-08T08:32:50;4.80;;;4.30;;
13425;SDS011;6785;57.918;12.530;2023-01-08T08:35:19;5.03;;;3.93;;
13425;SDS011;6785;57.918;12.530;2023-01-08T08:37:45;6.07;;;4.57;;
13425;SDS011;6785;57.918;12.530;2023-01-08T08:40:12;7.00;;;5.50;;
13425;SDS011;6785;57.918;12.530;2023-01-08T08:42:39;5.87;;;5.20;;
13425;SDS011;6785;57.918;12.530;2023-01-08T08:45:06;8.13;;;5.90;;
13425;SDS011;6785;57.918;12.530;2023-01-08T08:47:33;5.77;;;5.17;;
13425;SDS011;6785;57.918;12.530;2023-01-08T08:50:00;6.27;;;5.63;;
13425;SDS011;6785;57.918;12.530;2023-01-08T08:52:29;9.00;;;6.43;;
13425;SDS011;6785;57.918;12.530;2023-01-08T08:54:56;11.93;;;7.70;;
13425;SDS011;6785;57.918;12.530;2023-01-08T08:57:23;9.23;;;6.83;;
13425;SDS011;6785;57.918;12.530;2023-01-08T08:59:50;9.77;;;7.23;;
13425;SDS011;6785;57.918;12.530;2023-01-08T09:02:17;7.97;;;6.90;;
13425;SDS011;6785;57.918;12.530;2023-01-08T09:04:44;11.63;;;8.10;;
13425;SDS011;6785;57.918;12.530;2023-01-08T09:07:16;11.20;;;8.10;;
13425;SDS011;6785;57.918;12.530;2023-01-08T09:09:44;11.90;;;8.33;;
13425;SDS011;6785;57.918;12.530;2023-01-08T09:12:12;11.17;;;8.57;;
13425;SDS011;6785;57.918;12.530;2023-01-08T09:14:40;9.70;;;8.33;;
13425;SDS011;6785;57.918;12.530;2023-01-08T09:17:08;14.03;;;8.60;;
13425;SDS011;6785;57.918;12.530;2023-01-08T09:19:35;12.47;;;8.83;;
13425;SDS011;6785;57.918;12.530;2023-01-08T09:22:02;12.47;;;9.00;;
13425;SDS011;6785;57.918;12.530;2023-01-08T09:24:29;18.80;;;10.10;;
13425;SDS011;6785;57.918;12.530;2023-01-08T09:26:58;11.77;;;8.83;;
13425;SDS011;6785;57.918;12.530;2023-01-08T09:29:25;17.53;;;10.17;;
13425;SDS011;6785;57.918;12.530;2023-01-08T09:31:51;15.80;;;10.40;;
13425;SDS011;6785;57.918;12.530;2023-01-08T09:34:18;18.27;;;10.10;;
13425;SDS011;6785;57.918;12.530;2023-01-08T09:36:45;15.23;;;9.83;;
13425;SDS011;6785;57.918;12.530;2023-01-08T09:39:11;15.60;;;10.03;;
13425;SDS011;6785;57.918;12.530;2023-01-08T09:41:39;12.13;;;9.43;;
13425;SDS011;6785;57.918;12.530;2023-01-08T09:44:15;13.90;;;9.80;;
13425;SDS011;6785;57.918;12.530;2023-01-08T09:46:44;14.13;;;10.43;;
13425;SDS011;6785;57.918;12.530;2023-01-08T09:49:14;15.43;;;10.97;;
13425;SDS011;6785;57.918;12.530;2023-01-08T09:51:46;17.57;;;10.33;;
13425;SDS011;6785;57.918;12.530;2023-01-08T09:54:13;14.93;;;10.43;;
13425;SDS011;6785;57.918;12.530;2023-01-08T09:56:41;17.97;;;11.10;;
13425;SDS011;6785;57.918;12.530;2023-01-08T09:59:09;14.13;;;11.57;;
13425;SDS011;6785;57.918;12.530;2023-01-08T10:01:40;16.23;;;11.43;;
13425;SDS011;6785;57.918;12.530;2023-01-08T10:04:11;21.87;;;12.17;;
13425;SDS011;6785;57.918;12.530;2023-01-08T10:06:40;17.17;;;12.57;;
13425;SDS011;6785;57.918;12.530;2023-01-08T10:09:11;15.33;;;11.33;;
13425;SDS011;6785;57.918;12.530;2023-01-08T10:11:41;17.53;;;12.77;;
13425;SDS011;6785;57.918;12.530;2023-01-08T10:14:13;17.80;;;12.83;;
13425;SDS011;6785;57.918;12.530;2023-01-08T10:16:47;20.07;;;12.73;;
13425;SDS011;6785;57.918;12.530;2023-01-08T10:19:17;17.83;;;11.67;;
13425;SDS011;6785;57.918;12.530;2023-01-08T10:21:44;16.30;;;11.83;;
13425;SDS011;6785;57.918;12.530;2023-01-08T10:24:11;18.73;;;12.13;;
13425;SDS011;6785;57.918;12.530;2023-01-08T10:26:38;14.70;;;11.67;;
13425;SDS011;6785;57.918;12.530;2023-01-08T10:29:06;15.90;;;12.17;;
13425;SDS011;6785;57.918;12.530;2023-01-08T10:31:37;20.70;;;12.37;;
13425;SDS011;6785;57.918;12.530;2023-01-08T10:34:11;21.60;;;11.60;;
13425;SDS011;6785;57.918;12.530;2023-01-08T10:36:50;21.03;;;12.13;;
13425;SDS011;6785;57.918;12.530;2023-01-08T10:39:19;17.43;;;12.23;;
13425;SDS011;6785;57.918;12.530;2023-01-08T10:41:48;18.07;;;12.07;;
13425;SDS011;6785;57.918;12.530;2023-01-08T10:44:17;19.27;;;12.50;;
13425;SDS011;6785;57.918;12.530;2023-01-08T10:46:48;16.73;;;11.10;;
13425;SDS011;6785;57.918;12.530;2023-01-08T10:49:22;17.50;;;11.57;;
13425;SDS011;6785;57.918;12.530;2023-01-08T10:51:57;16.77;;;10.67;;
13425;SDS011;6785;57.918;12.530;2023-01-08T10:54:26;20.97;;;12.10;;
13425;SDS011;6785;57.918;12.530;2023-01-08T10:56:57;16.03;;;10.73;;
13425;SDS011;6785;57.918;12.530;2023-01-08T10:59:24;20.53;;;11.27;;
13425;SDS011;6785;57.918;12.530;2023-01-08T11:01:51;18.27;;;11.00;;
13425;SDS011;6785;57.918;12.530;2023-01-08T11:04:22;16.33;;;10.37;;
13425;SDS011;6785;57.918;12.530;2023-01-08T11:06:53;14.63;;;11.37;;
13425;SDS011;6785;57.918;12.530;2023-01-08T11:09:24;16.47;;;10.47;;
13425;SDS011;6785;57.918;12.530;2023-01-08T11:11:54;20.03;;;10.70;;
13425;SDS011;6785;57.918;12.530;2023-01-08T11:14:22;16.97;;;11.37;;
13425;SDS011;6785;57.918;12.530;2023-01-08T11:16:51;18.90;;;10.63;;
13425;SDS011;6785;57.918;12.530;2023-01-08T11:19:22;13.83;;;10.50;;
13425;SDS011;6785;57.918;12.530;2023-01-08T11:21:54;17.20;;;10.23;;
13425;SDS011;6785;57.918;12.530;2023-01-08T11:24:23;15.97;;;10.40;;
13425;SDS011;6785;57.918;12.530;2023-01-08T11:26:53;18.87;;;10.80;;
13425;SDS011;6785;57.918;12.530;2023-01-08T11:29:26;15.50;;;10.33;;
13425;SDS011;6785;57.918;12.530;2023-01-08T11:32:01;19.83;;;11.53;;
13425;SDS011;6785;57.918;12.530;2023-01-08T11:34:37;18.93;;;11.50;;
13425;SDS011;6785;57.918;12.530;2023-01-08T11:37:13;15.03;;;10.60;;
13425;SDS011;6785;57.918;12.530;2023-01-08T11:39:45;14.60;;;9.97;;
13425;SDS011;6785;57.918;12.530;2023-01-08T11:42:14;16.20;;;10.70;;
13425;SDS011;6785;57.918;12.530;2023-01-08T11:44:56;14.87;;;10.87;;
13425;SDS011;6785;57.918;12.530;2023-01-08T11:47:42;14.53;;;10.80;;
13425;SDS011;6785;57.918;12.530;2023-01-08T11:50:28;18.23;;;11.70;;
13425;SDS011;6785;57.918;12.530;2023-01-08T11:53:06;16.17;;;11.43;;
13425;SDS011;6785;57.918;12.530;2023-01-08T11:55:45;18.33;;;11.90;;
13425;SDS011;6785;57.918;12.530;2023-01-08T11:58:23;17.73;;;11.97;;
13425;SDS011;6785;57.918;12.530;2023-01-08T12:01:00;20.23;;;12.00;;
13425;SDS011;6785;57.918;12.530;2023-01-08T12:03:44;17.83;;;12.43;;
13425;SDS011;6785;57.918;12.530;2023-01-08T12:06:21;19.70;;;11.77;;
13425;SDS011;6785;57.918;12.530;2023-01-08T12:09:01;15.37;;;12.27;;
13425;SDS011;6785;57.918;12.530;2023-01-08T12:11:36;17.77;;;12.47;;
13425;SDS011;6785;57.918;12.530;2023-01-08T12:14:15;19.07;;;12.10;;
13425;SDS011;6785;57.918;12.530;2023-01-08T12:16:53;17.93;;;12.23;;
13425;SDS011;6785;57.918;12.530;2023-01-08T12:19:33;22.87;;;13.17;;
13425;SDS011;6785;57.918;12.530;2023-01-08T12:22:20;17.93;;;12.47;;
13425;SDS011;6785;57.918;12.530;2023-01-08T12:24:58;15.97;;;12.07;;
13425;SDS011;6785;57.918;12.530;2023-01-08T12:27:40;16.43;;;12.07;;
13425;SDS011;6785;57.918;12.530;2023-01-08T12:30:14;16.23;;;12.53;;
13425;SDS011;6785;57.918;12.530;2023-01-08T12:32:48;16.57;;;12.77;;
13425;SDS011;6785;57.918;12.530;2023-01-08T12:35:20;19.43;;;13.80;;
13425;SDS011;6785;57.918;12.530;2023-01-08T12:37:53;15.97;;;12.50;;
13425;SDS011;6785;57.918;12.530;2023-01-08T12:40:25;17.13;;;13.37;;
13425;SDS011;6785;57.918;12.530;2023-01-08T12:42:57;20.10;;;14.63;;
13425;SDS011;6785;57.918;12.530;2023-01-08T12:45:27;21.67;;;13.33;;
13425;SDS011;6785;57.918;12.530;2023-01-08T12:47:55;25.03;;;14.80;;
13425;SDS011;6785;57.918;12.530;2023-01-08T12:50:46;17.70;;;13.73;;
13425;SDS011;6785;57.918;12.530;2023-01-08T12:53:25;19.73;;;13.87;;
13425;SDS011;6785;57.918;12.530;2023-01-08T12:56:04;22.97;;;13.80;;
13425;SDS011;6785;57.918;12.530;2023-01-08T12:58:38;21.43;;;13.97;;
13425;SDS011;6785;57.918;12.530;2023-01-08T13:01:21;22.03;;;14.50;;
13425;SDS011;6785;57.918;12.530;2023-01-08T13:03:54;21.40;;;13.90;;
13425;SDS011;6785;57.918;12.530;2023-01-08T13:06:23;21.73;;;13.63;;
13425;SDS011;6785;57.918;12.530;2023-01-08T13:08:52;20.70;;;14.17;;
13425;SDS011;6785;57.918;12.530;2023-01-08T13:11:24;20.60;;;13.13;;
13425;SDS011;6785;57.918;12.530;2023-01-08T13:14:02;24.47;;;13.97;;
13425;SDS011;6785;57.918;12.530;2023-01-08T13:16:31;20.47;;;13.83;;
13425;SDS011;6785;57.918;12.530;2023-01-08T13:19:02;18.73;;;14.43;;
13425;SDS011;6785;57.918;12.530;2023-01-08T13:21:33;18.40;;;13.53;;
13425;SDS011;6785;57.918;12.530;2023-01-08T13:24:05;17.77;;;13.10;;
13425;SDS011;6785;57.918;12.530;2023-01-08T13:26:51;21.27;;;14.80;;
13425;SDS011;6785;57.918;12.530;2023-01-08T13:29:22;25.03;;;15.07;;
13425;SDS011;6785;57.918;12.530;2023-01-08T13:31:52;21.13;;;14.07;;
13425;SDS011;6785;57.918;12.530;2023-01-08T13:34:20;27.93;;;15.33;;
13425;SDS011;6785;57.918;12.530;2023-01-08T13:36:59;25.63;;;14.87;;
13425;SDS011;6785;57.918;12.530;2023-01-08T13:39:32;23.20;;;14.30;;
13425;SDS011;6785;57.918;12.530;2023-01-08T13:42:01;30.80;;;17.23;;
13425;SDS011;6785;57.918;12.530;2023-01-08T13:44:46;27.57;;;16.00;;
13425;SDS011;6785;57.918;12.530;2023-01-08T13:47:17;25.93;;;15.53;;
13425;SDS011;6785;57.918;12.530;2023-01-08T13:49:47;21.13;;;14.37;;
13425;SDS011;6785;57.918;12.530;2023-01-08T13:52:25;27.20;;;17.80;;
13425;SDS011;6785;57.918;12.530;2023-01-08T13:54:58;27.30;;;16.93;;
13425;SDS011;6785;57.918;12.530;2023-01-08T13:57:30;29.47;;;17.30;;
13425;SDS011;6785;57.918;12.530;2023-01-08T14:00:03;28.40;;;18.23;;
13425;SDS011;6785;57.918;12.530;2023-01-08T14:02:32;25.03;;;16.33;;
13425;SDS011;6785;57.918;12.530;2023-01-08T14:05:11;40.73;;;20.70;;
13425;SDS011;6785;57.918;12.530;2023-01-08T14:07:46;25.27;;;17.10;;
13425;SDS011;6785;57.918;12.530;2023-01-08T14:10:14;26.50;;;16.33;;
13425;SDS011;6785;57.918;12.530;2023-01-08T14:12:42;32.47;;;17.70;;
13425;SDS011;6785;57.918;12.530;2023-01-08T14:15:17;40.50;;;22.47;;
13425;SDS011;6785;57.918;12.530;2023-01-08T14:17:50;33.80;;;21.67;;
13425;SDS011;6785;57.918;12.530;2023-01-08T14:20:27;25.23;;;16.23;;
13425;SDS011;6785;57.918;12.530;2023-01-08T14:22:57;30.07;;;19.60;;
13425;SDS011;6785;57.918;12.530;2023-01-08T14:25:26;24.23;;;15.10;;
13425;SDS011;6785;57.918;12.530;2023-01-08T14:27:54;21.20;;;14.07;;
13425;SDS011;6785;57.918;12.530;2023-01-08T14:30:23;23.10;;;14.87;;
13425;SDS011;6785;57.918;12.530;2023-01-08T14:32:50;23.00;;;16.40;;
13425;SDS011;6785;57.918;12.530;2023-01-08T14:35:17;27.50;;;15.53;;
13425;SDS011;6785;57.918;12.530;2023-01-08T14:37:48;25.73;;;15.13;;
13425;SDS011;6785;57.918;12.530;2023-01-08T14:40:15;25.27;;;13.17;;
13425;SDS011;6785;57.918;12.530;2023-01-08T14:42:53;27.13;;;14.33;;
13425;SDS011;6785;57.918;12.530;2023-01-08T14:45:21;22.80;;;13.30;;
13425;SDS011;6785;57.918;12.530;2023-01-08T14:47:51;18.77;;;13.90;;
13425;SDS011;6785;57.918;12.530;2023-01-08T14:50:22;24.53;;;13.90;;
13425;SDS011;6785;57.918;12.530;2023-01-08T14:52:51;20.23;;;12.50;;